Time;durP1;ratioP1;P1;durP2;ratioP2;P2;SDS_P1;SDS_P2;PMS_P1;PMS_P2;Temp;Humidity;BMP_temperature;BMP_pressure;BME280_temperature;BME280_humidity;BME280_pressure;Samples;Min_cycle;Max_cycle;Signal;HPM_P1;HPM_P2
2021/03/07 00:00:07;;;;;;;11.20;2.67;;;23.60;58.40;;;;;;4171491;28;20130;-57
2021/03/07 00:02:09;;;;;;;6.18;2.08;;;23.60;58.40;;;;;;4171450;28;20052;-61
2021/03/07 00:04:11;;;;;;;5.78;2.13;;;23.70;58.40;;;;;;4177395;28;20613;-61
2021/03/07 00:06:13;;;;;;;5.65;1.65;;;23.70;58.20;;;;;;4172378;28;20497;-63
2021/03/07 00:08:15;;;;;;;4.22;1.50;;;23.70;58.10;;;;;;4173655;28;20125;-60
2021/03/07 00:10:19;;;;;;;2.85;1.58;;;23.70;58.10;;;;;;4173854;28;20539;-57
2021/03/07 00:12:21;;;;;;;3.60;1.70;;;23.70;58.60;;;;;;4170793;28;20527;-57
2021/03/07 00:14:23;;;;;;;5.63;1.90;;;23.70;57.90;;;;;;4170459;28;20048;-59
2021/03/07 00:16:25;;;;;;;2.83;1.40;;;23.70;57.90;;;;;;4174654;28;20519;-60
2021/03/07 00:18:27;;;;;;;3.08;1.55;;;23.70;57.90;;;;;;4170038;28;20040;-58
2021/03/07 00:20:29;;;;;;;5.57;2.00;;;23.70;57.90;;;;;;4165918;28;20140;-58
2021/03/07 00:22:31;;;;;;;5.22;1.70;;;23.80;57.70;;;;;;4175493;28;20136;-57
2021/03/07 00:24:33;;;;;;;5.40;2.00;;;23.80;57.60;;;;;;4175054;28;20452;-56
2021/03/07 00:26:36;;;;;;;4.70;1.90;;;23.80;57.60;;;;;;4172616;28;20440;-56
2021/03/07 00:28:38;;;;;;;3.58;1.85;;;23.80;57.50;;;;;;4177361;28;20036;-58
2021/03/07 00:30:40;;;;;;;5.57;2.27;;;23.90;57.50;;;;;;4172898;28;20055;-59
2021/03/07 00:32:43;;;;;;;4.18;1.70;;;23.90;57.50;;;;;;4164535;28;20039;-56
2021/03/07 00:34:45;;;;;;;8.55;2.38;;;23.90;57.50;;;;;;4163628;28;20058;-58
2021/03/07 00:36:47;;;;;;;7.45;2.22;;;23.90;57.50;;;;;;4171222;28;20047;-59
2021/03/07 00:38:49;;;;;;;10.75;2.17;;;23.90;57.50;;;;;;4168009;28;21131;-58
2021/03/07 00:40:51;;;;;;;7.28;2.38;;;24.00;57.60;;;;;;4168146;28;20197;-59
2021/03/07 00:42:56;;;;;;;7.20;2.13;;;24.00;57.60;;;;;;4165512;28;20146;-58
2021/03/07 00:44:59;;;;;;;7.07;1.60;;;24.10;57.70;;;;;;4165046;28;20880;-58
2021/03/07 00:47:04;;;;;;;6.55;1.90;;;24.10;57.80;;;;;;4169025;28;20180;-50
2021/03/07 00:49:09;;;;;;;5.65;1.55;;;24.10;58.00;;;;;;4165109;28;21271;-54
2021/03/07 00:51:12;;;;;;;3.28;1.25;;;24.20;58.00;;;;;;4165427;28;20036;-44
2021/03/07 00:53:14;;;;;;;5.20;1.60;;;24.20;57.90;;;;;;4171895;28;20051;-51
2021/03/07 00:55:16;;;;;;;4.97;2.20;;;24.20;57.90;;;;;;4169065;28;20393;-54
2021/03/07 00:57:18;;;;;;;10.23;1.98;;;24.20;58.90;;;;;;4169764;28;20477;-60
2021/03/07 00:59:21;;;;;;;2.80;1.63;;;24.20;58.80;;;;;;4164778;28;20071;-58
2021/03/07 01:01:23;;;;;;;4.10;1.90;;;24.30;58.60;;;;;;4169812;28;20118;-54
2021/03/07 01:03:25;;;;;;;2.95;1.60;;;24.30;58.50;;;;;;4170009;28;20117;-57
2021/03/07 01:05:29;;;;;;;4.03;1.67;;;24.40;58.90;;;;;;4172455;28;20080;-55
2021/03/07 01:07:32;;;;;;;6.13;2.15;;;24.40;58.30;;;;;;4168984;28;20132;-56
2021/03/07 01:09:34;;;;;;;5.75;1.77;;;24.40;58.40;;;;;;4168106;28;20047;-58
2021/03/07 01:11:36;;;;;;;4.88;1.83;;;24.40;58.40;;;;;;4163653;28;20131;-60
2021/03/07 01:13:38;;;;;;;2.97;1.50;;;24.40;58.60;;;;;;4165509;28;20028;-60
2021/03/07 01:15:41;;;;;;;3.55;1.52;;;24.50;58.60;;;;;;4167112;28;20044;-50
2021/03/07 01:17:43;;;;;;;2.45;1.48;;;24.60;58.70;;;;;;4164916;28;20459;-53
2021/03/07 01:19:45;;;;;;;6.28;1.83;;;24.60;58.40;;;;;;4163436;28;21344;-58
2021/03/07 01:21:47;;;;;;;5.15;1.77;;;24.60;58.00;;;;;;4166649;28;20064;-59
2021/03/07 01:23:49;;;;;;;4.55;1.90;;;24.60;57.90;;;;;;4167005;28;20131;-58
2021/03/07 01:25:52;;;;;;;3.83;1.80;;;24.60;58.60;;;;;;4167853;28;20036;-55
2021/03/07 01:27:54;;;;;;;8.45;2.15;;;24.70;58.20;;;;;;4170905;28;20125;-57
2021/03/07 01:29:56;;;;;;;4.68;2.20;;;24.70;58.10;;;;;;4168830;28;20099;-58
2021/03/07 01:31:58;;;;;;;5.68;2.00;;;24.70;58.30;;;;;;4173160;28;20055;-64
2021/03/07 01:34:00;;;;;;;16.83;2.90;;;24.80;58.30;;;;;;4170154;28;20028;-59
2021/03/07 01:36:03;;;;;;;9.70;1.77;;;24.80;58.10;;;;;;4170897;28;20039;-51
2021/03/07 01:38:05;;;;;;;7.73;2.20;;;24.80;58.10;;;;;;4166890;28;20547;-56
2021/03/07 01:40:11;;;;;;;18.80;2.50;;;24.90;58.00;;;;;;4169310;28;20504;-51
2021/03/07 01:42:13;;;;;;;7.28;1.80;;;24.90;58.10;;;;;;4166176;28;20579;-51
2021/03/07 01:44:15;;;;;;;8.77;2.13;;;24.90;57.90;;;;;;4169072;28;20058;-58
2021/03/07 01:46:17;;;;;;;7.90;1.95;;;24.90;57.60;;;;;;4173296;28;20149;-58
2021/03/07 01:48:20;;;;;;;6.82;1.70;;;24.90;57.40;;;;;;4170646;28;20488;-55
2021/03/07 01:50:28;;;;;;;5.33;1.60;;;24.90;57.40;;;;;;4168487;28;20055;-51
2021/03/07 01:52:30;;;;;;;3.92;1.77;;;24.90;57.30;;;;;;4172407;28;20071;-54
2021/03/07 01:54:32;;;;;;;4.25;1.48;;;24.90;57.30;;;;;;4167264;28;20044;-58
2021/03/07 01:56:35;;;;;;;4.25;1.45;;;24.90;57.30;;;;;;4168549;28;20062;-55
2021/03/07 01:58:38;;;;;;;4.93;1.80;;;24.90;57.20;;;;;;4171660;28;20967;-52
2021/03/07 02:00:39;;;;;;;;;;;24.90;57.20;;;;;;4172934;28;20268;-54
2021/03/07 02:02:42;;;;;;;4.65;1.55;;;24.90;57.10;;;;;;4170520;28;19932;-55
2021/03/07 02:04:44;;;;;;;7.20;1.95;;;24.90;56.80;;;;;;4172857;28;21200;-59
2021/03/07 02:06:46;;;;;;;3.20;1.38;;;24.90;56.80;;;;;;4163795;28;20047;-59
2021/03/07 02:08:50;;;;;;;3.45;1.50;;;25.00;56.70;;;;;;4171599;28;21026;-53
2021/03/07 02:10:51;;;;;;;;;;;25.00;56.70;;;;;;4171770;28;20379;-57
2021/03/07 02:12:56;;;;;;;5.30;1.60;;;25.00;56.60;;;;;;4175979;28;19952;-57
2021/03/07 02:14:59;;;;;;;4.78;1.63;;;25.10;56.30;;;;;;4172297;28;20936;-57
2021/03/07 02:17:01;;;;;;;6.00;1.90;;;25.10;56.30;;;;;;4169357;28;20569;-59
2021/03/07 02:19:07;;;;;;;3.53;1.60;;;25.10;56.20;;;;;;4173454;28;20036;-59
2021/03/07 02:21:12;;;;;;;4.30;1.60;;;25.10;56.10;;;;;;4173312;28;20511;-55
2021/03/07 02:23:19;;;;;;;2.92;1.88;;;25.10;56.00;;;;;;4172765;28;20043;-57
2021/03/07 02:25:22;;;;;;;3.63;1.80;;;25.10;55.40;;;;;;4172394;28;20032;-58
2021/03/07 02:27:24;;;;;;;4.25;1.70;;;25.10;56.00;;;;;;4172993;28;20066;-57
2021/03/07 02:29:27;;;;;;;3.97;1.80;;;25.10;56.10;;;;;;4170822;28;20124;-48
2021/03/07 02:31:30;;;;;;;5.18;1.90;;;25.10;56.00;;;;;;4176601;28;20050;-58
2021/03/07 02:33:38;;;;;;;4.05;1.90;;;25.10;56.00;;;;;;4170004;28;20499;-57
2021/03/07 02:35:47;;;;;;;4.45;1.92;;;25.10;55.90;;;;;;4171441;28;21742;-53
2021/03/07 02:37:53;;;;;;;5.93;2.05;;;25.10;55.90;;;;;;4171263;28;20035;-60
2021/03/07 02:39:57;;;;;;;3.55;2.00;;;25.20;55.90;;;;;;4174407;28;20109;-59
2021/03/07 02:42:11;;;;;;;3.65;1.80;;;25.20;55.90;;;;;;4173392;28;20048;-59
2021/03/07 02:44:18;;;;;;;5.38;2.30;;;25.20;55.80;;;;;;4172045;28;20159;-56
2021/03/07 02:46:21;;;;;;;5.32;2.45;;;25.30;55.70;;;;;;4163185;28;20456;-56
2021/03/07 02:48:26;;;;;;;6.32;2.42;;;25.30;55.80;;;;;;4166584;28;20544;-53
2021/03/07 02:50:31;;;;;;;4.55;2.35;;;25.30;55.80;;;;;;4166164;28;20045;-56
2021/03/07 02:52:34;;;;;;;4.60;2.15;;;25.30;55.60;;;;;;4168239;28;20097;-54
2021/03/07 02:54:38;;;;;;;4.20;2.10;;;25.40;55.40;;;;;;4166700;28;20608;-53
2021/03/07 02:56:43;;;;;;;5.38;2.30;;;25.40;55.60;;;;;;4168146;28;20131;-58
2021/03/07 02:58:48;;;;;;;4.03;2.15;;;25.40;55.50;;;;;;4174113;28;20632;-49
2021/03/07 03:00:55;;;;;;;4.40;2.55;;;25.40;55.40;;;;;;4170497;28;20036;-55
2021/03/07 03:03:05;;;;;;;5.35;2.38;;;25.40;56.00;;;;;;4168425;28;20064;-54
2021/03/07 03:05:10;;;;;;;4.97;2.10;;;25.50;55.50;;;;;;4166996;28;20299;-57
2021/03/07 03:07:13;;;;;;;7.90;2.60;;;25.50;55.50;;;;;;4171676;28;20368;-52
2021/03/07 03:09:17;;;;;;;4.80;2.13;;;25.50;55.60;;;;;;4153246;28;20079;-54
2021/03/07 03:11:26;;;;;;;4.85;2.05;;;25.50;55.50;;;;;;4169396;28;20947;-53
2021/03/07 03:13:31;;;;;;;6.03;2.20;;;25.50;55.30;;;;;;4174541;28;20029;-56
2021/03/07 03:15:33;;;;;;;7.43;2.67;;;25.60;55.30;;;;;;4172879;28;20041;-52
2021/03/07 03:17:37;;;;;;;4.10;2.20;;;25.60;55.30;;;;;;4169788;28;20031;-55
2021/03/07 03:19:41;;;;;;;4.97;2.30;;;25.60;55.10;;;;;;4174505;28;20895;-53
2021/03/07 03:21:46;;;;;;;4.60;2.30;;;25.60;55.20;;;;;;4172758;28;20836;-57
2021/03/07 03:23:49;;;;;;;7.45;2.88;;;25.70;55.20;;;;;;4172064;28;20078;-55
2021/03/07 03:25:52;;;;;;;6.40;2.35;;;25.70;55.20;;;;;;4171593;28;20038;-55
2021/03/07 03:27:56;;;;;;;4.88;1.83;;;25.70;55.00;;;;;;4170875;28;20451;-55
2021/03/07 03:29:59;;;;;;;6.18;2.75;;;25.70;55.00;;;;;;4173613;28;20042;-57
2021/03/07 03:32:02;;;;;;;4.90;2.10;;;25.70;55.00;;;;;;4172730;28;20122;-57
2021/03/07 03:34:07;;;;;;;5.65;2.05;;;25.80;55.10;;;;;;4171783;28;20109;-55
2021/03/07 03:36:09;;;;;;;4.85;2.33;;;25.80;55.00;;;;;;4175693;28;20048;-56
2021/03/07 03:38:11;;;;;;;4.88;2.40;;;25.80;54.90;;;;;;4156058;28;20040;-51
2021/03/07 03:40:21;;;;;;;6.85;2.42;;;25.80;54.90;;;;;;4174345;28;20096;-56
2021/03/07 03:42:24;;;;;;;4.35;2.00;;;25.90;54.90;;;;;;4169360;28;20469;-49
2021/03/07 03:44:30;;;;;;;4.93;2.20;;;25.90;54.90;;;;;;4172294;28;21453;-57
2021/03/07 03:46:36;;;;;;;6.80;2.50;;;25.90;54.80;;;;;;4170447;28;20054;-57
2021/03/07 03:48:41;;;;;;;4.30;2.42;;;25.90;54.80;;;;;;4172148;28;20597;-53
2021/03/07 03:50:44;;;;;;;5.47;2.38;;;26.00;54.80;;;;;;4170240;28;20161;-54
2021/03/07 03:52:49;;;;;;;5.22;2.22;;;26.00;54.80;;;;;;4174212;28;20032;-59
2021/03/07 03:55:03;;;;;;;4.35;2.00;;;26.00;54.80;;;;;;4170595;28;20093;-53
2021/03/07 03:57:05;;;;;;;4.55;2.10;;;26.00;54.70;;;;;;4169569;28;21136;-56
2021/03/07 03:59:09;;;;;;;3.60;2.15;;;26.10;54.80;;;;;;4174501;28;20040;-54
2021/03/07 04:01:15;;;;;;;4.78;2.20;;;26.10;54.70;;;;;;4175900;28;20032;-57
2021/03/07 04:03:19;;;;;;;4.28;2.00;;;26.10;54.60;;;;;;4158827;28;20055;-53
2021/03/07 04:05:23;;;;;;;6.18;2.45;;;26.20;54.80;;;;;;4160528;28;20044;-56
2021/03/07 04:07:26;;;;;;;5.95;2.40;;;26.20;54.70;;;;;;4155202;28;20035;-53
2021/03/07 04:09:29;;;;;;;6.15;2.30;;;26.20;54.40;;;;;;4159367;28;20344;-58
2021/03/07 04:11:33;;;;;;;5.10;2.38;;;26.30;54.50;;;;;;4158558;28;20167;-53
2021/03/07 04:13:37;;;;;;;4.57;2.20;;;26.30;54.30;;;;;;4163649;28;20782;-56
2021/03/07 04:15:39;;;;;;;;;;;26.30;54.30;;;;;;4160321;28;20500;-53
2021/03/07 04:17:43;;;;;;;3.92;2.45;;;26.40;54.30;;;;;;4157705;28;19927;-57
2021/03/07 04:19:46;;;;;;;4.10;2.05;;;26.50;54.20;;;;;;4160205;28;20235;-52
2021/03/07 04:21:50;;;;;;;3.13;1.90;;;26.50;54.20;;;;;;4155795;28;21327;-57
2021/03/07 04:23:52;;;;;;;4.53;2.15;;;26.50;54.10;;;;;;4156752;28;20495;-55
2021/03/07 04:25:54;;;;;;;4.15;2.08;;;26.60;54.20;;;;;;4158041;28;20124;-51
2021/03/07 04:27:56;;;;;;;3.40;2.38;;;26.60;54.10;;;;;;4158855;28;20035;-54
2021/03/07 04:29:59;;;;;;;5.47;2.30;;;26.70;54.10;;;;;;4157629;28;20604;-57
2021/03/07 04:32:02;;;;;;;5.68;2.10;;;26.70;54.00;;;;;;4158708;28;20454;-53
2021/03/07 04:34:04;;;;;;;3.83;2.13;;;26.80;53.90;;;;;;4156329;28;20028;-53
2021/03/07 04:36:06;;;;;;;5.10;2.40;;;26.90;53.90;;;;;;4157267;28;20090;-59
2021/03/07 04:38:09;;;;;;;4.28;2.38;;;26.90;53.70;;;;;;4156749;28;20032;-56
2021/03/07 04:40:12;;;;;;;5.10;2.05;;;27.00;53.70;;;;;;4159772;28;20037;-57
2021/03/07 04:42:13;;;;;;;;;;;27.00;53.70;;;;;;4157264;28;20047;-57
2021/03/07 04:44:16;;;;;;;4.40;2.33;;;27.10;53.60;;;;;;4160344;28;19989;-57
2021/03/07 04:46:22;;;;;;;4.93;2.30;;;27.10;53.40;;;;;;4161589;28;20039;-55
2021/03/07 04:48:27;;;;;;;3.95;2.10;;;27.10;53.40;;;;;;4172469;28;20044;-57
2021/03/07 04:50:29;;;;;;;4.07;2.40;;;27.20;53.30;;;;;;4154658;28;20359;-56
2021/03/07 04:52:31;;;;;;;4.05;2.25;;;27.30;53.50;;;;;;4161431;28;20036;-55
2021/03/07 04:54:34;;;;;;;4.57;2.53;;;27.30;53.20;;;;;;4158126;28;20351;-55
2021/03/07 04:56:36;;;;;;;4.38;2.30;;;27.30;53.10;;;;;;4155357;28;20043;-58
2021/03/07 04:58:38;;;;;;;5.75;2.65;;;27.40;53.00;;;;;;4158801;28;20025;-57
2021/03/07 05:00:40;;;;;;;5.50;2.35;;;27.50;52.90;;;;;;4158182;28;20532;-56
2021/03/07 05:02:42;;;;;;;3.75;2.05;;;27.60;53.30;;;;;;4173993;28;20052;-56
2021/03/07 05:04:44;;;;;;;4.15;2.30;;;27.60;52.70;;;;;;4174351;28;20051;-58
2021/03/07 05:06:46;;;;;;;4.03;2.40;;;27.70;52.70;;;;;;4174160;28;20044;-54
2021/03/07 05:08:48;;;;;;;3.72;2.17;;;27.80;52.50;;;;;;4174575;28;20123;-57
2021/03/07 05:10:50;;;;;;;4.68;2.33;;;27.80;52.40;;;;;;4183693;28;20395;-54
2021/03/07 05:12:53;;;;;;;3.70;2.00;;;27.90;52.20;;;;;;4181871;28;20712;-55
2021/03/07 05:14:55;;;;;;;3.72;2.38;;;27.90;52.20;;;;;;4182731;28;20067;-56
2021/03/07 05:16:58;;;;;;;4.88;2.47;;;28.00;52.00;;;;;;4181815;28;20537;-56
2021/03/07 05:19:03;;;;;;;4.72;2.45;;;28.00;52.00;;;;;;4184239;28;21376;-55
2021/03/07 05:21:06;;;;;;;4.55;2.30;;;28.10;52.50;;;;;;4185186;28;20043;-53
2021/03/07 05:23:08;;;;;;;4.28;2.35;;;28.20;51.80;;;;;;4165632;28;20075;-56
2021/03/07 05:25:11;;;;;;;4.43;3.00;;;28.20;51.90;;;;;;4178767;28;20085;-55
2021/03/07 05:27:13;;;;;;;5.05;3.00;;;28.30;51.60;;;;;;4177608;28;20419;-53
2021/03/07 05:29:15;;;;;;;4.20;2.87;;;28.40;51.40;;;;;;4177725;28;20043;-56
2021/03/07 05:31:18;;;;;;;6.37;3.03;;;28.50;51.40;;;;;;4176751;28;20264;-55
2021/03/07 05:33:20;;;;;;;5.73;3.50;;;28.50;50.90;;;;;;4175348;28;20512;-54
2021/03/07 05:35:24;;;;;;;5.80;2.70;;;28.60;50.90;;;;;;4175420;28;20036;-55
2021/03/07 05:37:26;;;;;;;4.97;2.85;;;28.60;50.80;;;;;;4174379;28;20047;-52
2021/03/07 05:39:30;;;;;;;4.83;2.53;;;28.70;51.00;;;;;;4174510;28;20044;-54
2021/03/07 05:41:32;;;;;;;4.78;2.63;;;28.70;50.90;;;;;;4172882;28;20082;-54
2021/03/07 05:43:34;;;;;;;3.53;2.05;;;28.70;50.90;;;;;;4177156;28;20635;-59
2021/03/07 05:45:37;;;;;;;4.43;2.70;;;28.80;50.90;;;;;;4172366;28;20055;-52
2021/03/07 05:47:40;;;;;;;3.80;2.10;;;28.90;51.00;;;;;;4171855;28;20042;-59
2021/03/07 05:49:42;;;;;;;2.33;1.67;;;28.90;51.10;;;;;;4175121;28;20032;-55
2021/03/07 05:51:45;;;;;;;4.15;2.20;;;28.90;51.00;;;;;;4172535;28;20074;-56
2021/03/07 05:53:49;;;;;;;5.85;2.72;;;29.00;50.80;;;;;;4174370;28;20477;-50
2021/03/07 05:55:52;;;;;;;5.10;2.60;;;29.00;50.60;;;;;;4152287;28;20832;-56
2021/03/07 05:57:59;;;;;;;4.88;2.67;;;29.00;50.40;;;;;;4176173;28;20458;-54
2021/03/07 06:00:03;;;;;;;5.32;2.58;;;29.10;50.40;;;;;;4174793;28;20035;-54
2021/03/07 06:02:06;;;;;;;4.70;2.85;;;29.10;50.20;;;;;;4172607;28;20056;-54
2021/03/07 06:04:08;;;;;;;5.10;2.77;;;29.20;50.30;;;;;;4175131;28;20021;-59
2021/03/07 06:06:10;;;;;;;5.47;2.80;;;29.20;50.20;;;;;;4175506;28;20036;-56
2021/03/07 06:08:12;;;;;;;5.67;2.73;;;29.30;50.10;;;;;;4173004;28;20505;-56
2021/03/07 06:10:23;;;;;;;4.25;2.50;;;29.20;50.00;;;;;;4177296;28;20466;-50
2021/03/07 06:12:25;;;;;;;4.82;2.55;;;29.20;50.10;;;;;;4175769;28;20063;-58
2021/03/07 06:14:30;;;;;;;4.78;3.00;;;29.30;50.20;;;;;;4179535;28;21089;-56
2021/03/07 06:16:32;;;;;;;6.20;3.10;;;29.30;50.10;;;;;;4181182;28;20650;-57
2021/03/07 06:18:42;;;;;;;8.20;2.83;;;29.40;50.10;;;;;;4176858;28;20136;-56
2021/03/07 06:20:46;;;;;;;4.05;1.98;;;29.40;50.10;;;;;;4177139;28;20408;-57
2021/03/07 06:23:02;;;;;;;3.30;2.08;;;29.40;50.40;;;;;;4179628;28;20060;-52
2021/03/07 06:25:07;;;;;;;3.15;1.75;;;29.40;50.40;;;;;;4178239;28;20556;-53
2021/03/07 06:27:12;;;;;;;4.65;1.92;;;29.40;50.40;;;;;;4176871;28;20039;-56
2021/03/07 06:29:14;;;;;;;3.10;1.70;;;29.50;50.30;;;;;;4177604;28;20528;-55
2021/03/07 06:31:30;;;;;;;3.33;2.03;;;29.60;50.40;;;;;;4180462;28;20039;-57
2021/03/07 06:33:37;;;;;;;3.42;1.70;;;29.60;50.10;;;;;;4180162;28;21499;-53
2021/03/07 06:35:39;;;;;;;3.90;1.90;;;29.60;50.00;;;;;;4178738;28;20176;-48
2021/03/07 06:38:09;;;;;;;3.72;2.03;;;29.70;50.10;;;;;;4181424;28;20068;-55
2021/03/07 06:40:26;;;;;;;3.58;1.90;;;29.70;50.00;;;;;;4178245;28;20040;-53
2021/03/07 06:42:28;;;;;;;2.50;1.58;;;29.70;50.00;;;;;;4175383;28;20037;-55
2021/03/07 06:44:30;;;;;;;4.73;2.30;;;29.70;50.00;;;;;;4180120;28;20774;-52
2021/03/07 06:46:35;;;;;;;5.30;2.38;;;29.70;50.10;;;;;;4179400;28;20139;-53
2021/03/07 06:48:38;;;;;;;3.60;2.28;;;29.70;50.00;;;;;;4182136;28;20432;-55
2021/03/07 06:51:00;;;;;;;3.53;2.17;;;29.70;49.90;;;;;;4174426;28;20543;-56
2021/03/07 06:53:02;;;;;;;3.45;1.98;;;29.80;49.80;;;;;;4177108;28;20551;-56
2021/03/07 06:55:12;;;;;;;4.70;2.40;;;29.80;49.60;;;;;;4178710;28;20392;-56
2021/03/07 06:57:28;;;;;;;4.45;2.13;;;29.80;49.60;;;;;;4173993;28;21124;-54
2021/03/07 06:59:31;;;;;;;3.45;2.00;;;29.80;49.50;;;;;;4179096;28;20092;-56
2021/03/07 07:01:39;;;;;;;4.03;2.25;;;29.80;50.00;;;;;;4180606;28;20605;-56
2021/03/07 07:03:57;;;;;;;4.32;2.00;;;29.80;49.40;;;;;;4178951;28;20489;-50
2021/03/07 07:05:59;;;;;;;3.88;2.33;;;29.80;49.40;;;;;;4180092;28;20541;-51
2021/03/07 07:08:01;;;;;;;3.53;2.00;;;29.80;49.20;;;;;;4178905;28;20127;-55
2021/03/07 07:10:07;;;;;;;6.25;2.45;;;29.80;49.30;;;;;;4175835;28;20287;-54
2021/03/07 07:12:23;;;;;;;4.18;2.08;;;29.70;49.20;;;;;;4178442;28;20119;-54
2021/03/07 07:14:43;;;;;;;4.65;2.30;;;29.70;49.40;;;;;;4176331;28;20527;-57
2021/03/07 07:16:45;;;;;;;3.90;2.40;;;29.70;49.50;;;;;;4179168;28;20247;-55
2021/03/07 07:18:49;;;;;;;3.88;1.98;;;29.70;49.60;;;;;;4176931;28;20158;-52
2021/03/07 07:20:52;;;;;;;4.35;2.17;;;29.60;49.50;;;;;;4177572;28;20039;-58
2021/03/07 07:22:55;;;;;;;3.72;2.40;;;29.60;49.60;;;;;;4177870;28;20131;-58
2021/03/07 07:24:57;;;;;;;3.93;1.93;;;29.60;49.70;;;;;;4178862;28;20051;-55
2021/03/07 07:26:59;;;;;;;3.40;2.20;;;29.50;49.70;;;;;;4178692;28;20879;-58
2021/03/07 07:29:02;;;;;;;4.57;2.28;;;29.50;49.70;;;;;;4175558;28;20368;-51
2021/03/07 07:31:13;;;;;;;;;;;29.40;49.60;;;;;;4180611;28;20031;-58
2021/03/07 07:33:30;;;;;;;5.63;2.08;;;29.40;49.90;;;;;;4177982;28;19915;-50
2021/03/07 07:35:33;;;;;;;3.97;2.22;;;29.30;49.90;;;;;;4174734;28;20102;-55
2021/03/07 07:37:47;;;;;;;5.10;2.15;;;29.30;49.90;;;;;;4178504;28;20042;-54
2021/03/07 07:39:55;;;;;;;3.58;2.10;;;29.30;50.10;;;;;;4179935;28;20635;-56
2021/03/07 07:41:57;;;;;;;4.80;2.58;;;29.20;50.00;;;;;;4177427;28;20040;-57
2021/03/07 07:44:01;;;;;;;5.28;2.38;;;29.20;49.90;;;;;;4176004;28;20389;-54
2021/03/07 07:46:13;;;;;;;4.00;2.30;;;29.20;50.10;;;;;;4175319;28;20481;-56
2021/03/07 07:48:34;;;;;;;4.00;2.10;;;29.10;50.20;;;;;;4175964;28;20038;-57
2021/03/07 07:50:38;;;;;;;4.65;2.58;;;29.10;50.50;;;;;;4176110;28;20044;-56
2021/03/07 07:52:40;;;;;;;6.05;2.28;;;29.00;50.70;;;;;;4176453;28;20019;-57
2021/03/07 07:54:50;;;;;;;4.40;2.30;;;29.00;50.70;;;;;;4172222;28;20211;-55
2021/03/07 07:56:52;;;;;;;3.88;2.30;;;28.90;50.70;;;;;;4165165;28;20129;-59
2021/03/07 07:58:54;;;;;;;4.97;2.17;;;28.90;50.90;;;;;;4174479;28;20058;-57
2021/03/07 08:00:57;;;;;;;3.53;2.20;;;28.80;51.00;;;;;;4170944;28;20561;-58
2021/03/07 08:02:59;;;;;;;4.57;2.08;;;28.80;51.00;;;;;;4172925;28;20097;-54
2021/03/07 08:05:01;;;;;;;4.55;2.55;;;28.70;51.10;;;;;;4167035;28;20036;-55
2021/03/07 08:07:05;;;;;;;3.75;2.22;;;28.70;51.10;;;;;;4174540;28;20035;-59
2021/03/07 08:09:46;;;;;;;4.63;2.30;;;28.70;51.20;;;;;;4170783;28;22173;-59
2021/03/07 08:11:48;;;;;;;4.13;2.22;;;28.60;51.30;;;;;;4171065;28;20102;-49
2021/03/07 08:13:54;;;;;;;4.40;2.25;;;28.60;52.10;;;;;;4175328;28;20130;-59
2021/03/07 08:15:58;;;;;;;5.35;2.28;;;28.60;51.40;;;;;;4175666;28;20726;-56
2021/03/07 08:18:04;;;;;;;5.30;2.50;;;28.50;51.50;;;;;;4175839;28;20159;-58
2021/03/07 08:20:07;;;;;;;3.60;2.10;;;28.60;51.60;;;;;;4175485;28;20426;-59
2021/03/07 08:22:09;;;;;;;3.75;1.85;;;28.50;51.60;;;;;;4172406;28;20036;-56
2021/03/07 08:24:11;;;;;;;3.85;2.25;;;28.50;51.70;;;;;;4172889;28;20063;-52
2021/03/07 08:26:13;;;;;;;3.50;2.23;;;28.40;52.30;;;;;;4174409;28;20147;-57
2021/03/07 08:28:42;;;;;;;4.97;2.33;;;28.40;51.70;;;;;;4169028;28;20031;-55
2021/03/07 08:30:44;;;;;;;3.90;2.13;;;28.40;51.80;;;;;;4162309;28;20047;-55
2021/03/07 08:32:47;;;;;;;5.35;2.30;;;28.40;51.80;;;;;;4170594;28;20035;-54
2021/03/07 08:34:49;;;;;;;6.45;2.25;;;28.40;51.90;;;;;;4172224;28;20738;-57
2021/03/07 08:36:59;;;;;;;9.97;2.73;;;28.30;52.10;;;;;;4168217;28;20446;-53
2021/03/07 08:39:07;;;;;;;7.05;2.63;;;28.30;52.40;;;;;;4170461;28;20140;-54
2021/03/07 08:41:09;;;;;;;7.35;2.55;;;28.30;52.70;;;;;;4169020;28;20135;-52
2021/03/07 08:43:23;;;;;;;8.05;2.70;;;28.30;52.80;;;;;;4171027;28;20058;-54
2021/03/07 08:45:26;;;;;;;5.85;2.55;;;28.30;53.00;;;;;;4166979;28;20532;-59
2021/03/07 08:47:58;;;;;;;8.27;2.90;;;28.30;53.40;;;;;;4168198;28;20036;-56
2021/03/07 08:50:06;;;;;;;6.28;2.35;;;28.30;53.60;;;;;;4166422;28;20028;-55
2021/03/07 08:52:09;;;;;;;4.75;2.50;;;28.30;53.60;;;;;;4169935;28;20031;-53
2021/03/07 08:54:19;;;;;;;6.75;2.63;;;28.30;54.00;;;;;;4172169;28;20455;-57
2021/03/07 08:56:25;;;;;;;15.13;2.78;;;28.30;54.10;;;;;;4169753;28;20060;-56
2021/03/07 08:58:27;;;;;;;6.03;2.60;;;28.30;54.10;;;;;;4170933;28;20097;-55
2021/03/07 09:00:29;;;;;;;7.72;2.78;;;28.30;54.10;;;;;;4168758;28;20055;-57
2021/03/07 09:02:34;;;;;;;8.30;3.00;;;28.30;54.00;;;;;;4169258;28;20067;-57
2021/03/07 09:04:38;;;;;;;6.10;2.50;;;28.40;53.80;;;;;;4171458;28;20044;-58
2021/03/07 09:06:45;;;;;;;11.65;3.17;;;28.30;53.70;;;;;;4170936;28;20058;-57
2021/03/07 09:08:47;;;;;;;6.80;2.50;;;28.30;54.20;;;;;;4169082;28;20654;-57
2021/03/07 09:10:52;;;;;;;5.25;2.50;;;28.30;54.20;;;;;;4172295;28;21216;-56
2021/03/07 09:12:54;;;;;;;16.35;2.30;;;28.30;54.30;;;;;;4168567;28;20044;-54
2021/03/07 09:15:08;;;;;;;5.35;1.73;;;28.30;54.60;;;;;;4170180;28;20598;-57
2021/03/07 09:17:22;;;;;;;4.10;1.60;;;28.30;54.30;;;;;;4169314;28;20051;-55
2021/03/07 09:19:31;;;;;;;2.70;1.30;;;28.30;54.30;;;;;;4171185;28;20032;-55
2021/03/07 09:21:33;;;;;;;2.38;1.17;;;28.30;54.50;;;;;;4171441;28;20050;-58
2021/03/07 09:23:44;;;;;;;6.65;1.67;;;28.40;54.70;;;;;;4169613;28;21216;-59
2021/03/07 09:25:52;;;;;;;6.18;1.70;;;28.40;55.10;;;;;;4170958;28;20056;-56
2021/03/07 09:27:54;;;;;;;6.28;1.63;;;28.40;54.90;;;;;;4169871;28;20768;-59
2021/03/07 09:30:01;;;;;;;5.90;1.80;;;28.30;54.80;;;;;;4170667;28;20045;-58
2021/03/07 09:32:03;;;;;;;4.10;2.00;;;28.30;55.60;;;;;;4167248;28;20092;-56
2021/03/07 09:34:06;;;;;;;6.70;1.58;;;28.40;55.20;;;;;;4172151;28;20045;-57
2021/03/07 09:36:10;;;;;;;6.00;1.75;;;28.30;55.30;;;;;;4168658;28;20485;-58
2021/03/07 09:38:14;;;;;;;4.15;1.75;;;28.40;55.50;;;;;;4168747;28;20145;-59
2021/03/07 09:40:17;;;;;;;3.67;1.70;;;28.40;55.70;;;;;;4171062;28;20123;-54
2021/03/07 09:42:20;;;;;;;3.30;1.30;;;28.30;55.70;;;;;;4169637;28;20040;-59
2021/03/07 09:44:23;;;;;;;7.85;1.92;;;28.40;55.90;;;;;;4168999;28;20626;-58
2021/03/07 09:46:26;;;;;;;3.95;1.73;;;28.40;55.90;;;;;;4173733;28;20628;-56
2021/03/07 09:48:33;;;;;;;;;;;28.30;56.10;;;;;;4171785;28;20109;-59
2021/03/07 09:50:35;;;;;;;5.25;1.88;;;28.30;56.10;;;;;;4172552;28;20378;-61
2021/03/07 09:52:37;;;;;;;4.82;1.88;;;28.30;56.40;;;;;;4174539;28;20119;-58
2021/03/07 09:54:53;;;;;;;5.88;1.83;;;28.30;56.40;;;;;;4173803;28;20028;-57
2021/03/07 09:56:55;;;;;;;4.55;2.05;;;28.30;56.40;;;;;;4172097;28;20054;-56
2021/03/07 09:59:18;;;;;;;5.35;1.67;;;28.30;56.70;;;;;;4174930;28;20429;-58
2021/03/07 10:01:21;;;;;;;4.88;2.17;;;28.30;56.70;;;;;;4175497;28;20043;-53
2021/03/07 10:03:25;;;;;;;8.45;2.15;;;28.30;56.90;;;;;;4170139;28;20130;-60
2021/03/07 10:05:27;;;;;;;5.97;2.10;;;28.30;57.20;;;;;;4173366;28;20097;-57
2021/03/07 10:07:32;;;;;;;7.22;2.03;;;28.30;57.90;;;;;;4175388;28;20039;-59
2021/03/07 10:09:54;;;;;;;5.45;1.83;;;28.30;57.50;;;;;;4174927;28;20744;-57
2021/03/07 10:12:04;;;;;;;4.45;2.10;;;28.30;57.50;;;;;;4173889;28;20509;-54
2021/03/07 10:14:08;;;;;;;4.18;1.77;;;28.30;57.60;;;;;;4174171;28;20110;-57
2021/03/07 10:16:22;;;;;;;9.85;2.40;;;28.30;57.60;;;;;;4176347;28;20043;-57
2021/03/07 10:18:24;;;;;;;3.78;1.73;;;28.30;57.60;;;;;;4172726;28;20045;-55
2021/03/07 10:20:37;;;;;;;6.13;2.20;;;28.30;57.70;;;;;;4173196;28;20331;-57
2021/03/07 10:22:47;;;;;;;5.38;1.92;;;28.30;57.80;;;;;;4173918;28;20155;-58
2021/03/07 10:24:53;;;;;;;7.30;1.75;;;28.30;57.80;;;;;;4173386;28;20048;-57
2021/03/07 10:27:04;;;;;;;5.03;1.92;;;28.30;58.00;;;;;;4172550;28;20441;-57
2021/03/07 10:29:28;;;;;;;9.95;2.33;;;28.30;58.50;;;;;;4172021;28;20028;-55
2021/03/07 10:31:30;;;;;;;4.38;1.83;;;28.30;58.50;;;;;;4171551;28;20031;-59
2021/03/07 10:33:32;;;;;;;6.35;1.90;;;28.30;58.80;;;;;;4175263;28;20116;-56
2021/03/07 10:35:35;;;;;;;6.00;2.05;;;28.30;58.60;;;;;;4169867;28;20611;-58
2021/03/07 10:37:44;;;;;;;5.47;1.93;;;28.20;58.40;;;;;;4175010;28;20054;-54
2021/03/07 10:39:53;;;;;;;4.57;1.88;;;28.20;58.50;;;;;;4170941;28;20864;-52
2021/03/07 10:42:30;;;;;;;5.05;2.10;;;28.20;58.60;;;;;;4171780;28;20894;-56
2021/03/07 10:44:32;;;;;;;5.70;1.98;;;28.20;58.60;;;;;;4166467;28;20046;-58
2021/03/07 10:46:42;;;;;;;5.75;2.25;;;28.20;58.80;;;;;;4176838;28;20028;-57
2021/03/07 10:48:44;;;;;;;4.32;1.52;;;28.20;58.80;;;;;;4174087;28;20067;-55
2021/03/07 10:50:48;;;;;;;5.17;2.30;;;28.20;59.00;;;;;;4171277;28;20066;-50